Time,TemperatureF,DewpointF,PressureIn,WindDirection,WindDirectionDegrees,WindSpeedMPH,WindSpeedGustMPH,Humidity,HourlyPrecipIn,Conditions,Clouds,dailyrainin,SoftwareType,DateUTC
2013-04-15 00:00:00,57.7,51.9,29.85,SE,135,1.0,5.0,81,0.00,,---,0.00,VWS V14.01,2013-04-15 07:00:00,
2013-04-15 00:03:00,57.6,52.0,29.85,ESE,112,2.0,3.0,81,0.00,,,0.00,weatherlink.com 1.10,2013-04-15 07:03:00,
2013-04-15 00:15:00,57.6,51.8,29.85,South,180,1.0,5.0,81,0.00,,---,0.00,VWS V14.01,2013-04-15 07:15:00,
2013-04-15 00:30:00,57.6,51.8,29.85,South,180,1.0,5.0,81,0.00,,---,0.00,VWS V14.01,2013-04-15 07:30:00,
2013-04-15 00:45:00,57.5,51.7,29.84,SSE,158,1.0,4.0,81,0.00,,---,0.00,VWS V14.01,2013-04-15 07:45:00,
2013-04-15 00:48:00,57.5,51.0,29.84,SSE,157,0.0,5.0,80,0.00,,,0.00,weatherlink.com 1.10,2013-04-15 07:48:00,
2013-04-15 01:00:00,57.5,51.7,29.84,SSE,158,1.0,5.0,81,0.00,,---,0.00,VWS V14.01,2013-04-15 08:00:00,
2013-04-15 01:03:00,57.5,52.0,29.84,ESE,115,1.0,3.0,81,0.00,,,0.00,weatherlink.com 1.10,2013-04-15 08:03:00,
2013-04-15 01:15:00,57.5,51.7,29.84,South,180,1.0,4.0,81,0.00,,---,0.00,VWS V14.01,2013-04-15 08:15:00,
2013-04-15 01:18:00,57.6,52.0,29.84,South,176,1.0,4.0,81,0.00,,,0.00,weatherlink.com 1.10,2013-04-15 08:18:00,
2013-04-15 01:30:00,57.5,51.7,29.84,South,180,1.0,4.0,81,0.00,,---,0.00,VWS V14.01,2013-04-15 08:30:00,
2013-04-15 01:33:00,57.5,52.0,29.84,South,175,1.0,4.0,81,0.00,,,0.00,weatherlink.com 1.10,2013-04-15 08:33:00,
2013-04-15 01:45:00,57.5,51.7,29.84,SSE,158,1.0,4.0,81,0.00,,---,0.00,VWS V14.01,2013-04-15 08:45:00,
2013-04-15 01:48:00,57.5,51.0,29.84,South,169,1.0,4.0,80,0.00,,,0.00,weatherlink.com 1.10,2013-04-15 08:48:00,
2013-04-15 02:00:00,57.5,51.7,29.84,South,180,2.0,5.0,81,0.00,,---,0.00,VWS V14.01,2013-04-15 09:00:00,
2013-04-15 02:03:00,57.5,52.0,29.84,South,169,1.0,5.0,81,0.00,,,0.00,weatherlink.com 1.10,2013-04-15 09:03:00,
2013-04-15 02:15:00,57.5,51.7,29.84,SSE,158,1.0,5.0,81,0.00,,---,0.00,VWS V14.01,2013-04-15 09:15:00,
2013-04-15 02:18:00,57.5,52.0,29.84,SW,219,3.0,6.0,81,0.00,,,0.00,weatherlink.com 1.10,2013-04-15 09:18:00,
2013-04-15 02:30:00,57.4,51.6,29.84,South,180,2.0,6.0,81,0.00,,---,0.00,VWS V14.01,2013-04-15 09:30:00,
2013-04-15 02:33:00,57.4,52.0,29.83,South,191,0.0,6.0,81,0.00,,,0.00,weatherlink.com 1.10,2013-04-15 09:33:00,
2013-04-15 02:45:00,57.4,51.6,29.83,South,180,1.0,6.0,81,0.00,,---,0.00,VWS V14.01,2013-04-15 09:45:00,
2013-04-15 02:48:00,57.4,52.0,29.83,South,178,0.0,7.0,81,0.00,,,0.00,weatherlink.com 1.10,2013-04-15 09:48:00,
2013-04-15 03:00:00,57.3,51.5,29.83,South,180,1.0,7.0,81,0.00,,---,0.00,VWS V14.01,2013-04-15 10:00:00,
2013-04-15 03:03:00,57.3,52.0,29.83,South,176,0.0,6.0,81,0.00,,,0.00,weatherlink.com 1.10,2013-04-15 10:03:00,
2013-04-15 03:15:00,57.3,51.5,29.82,South,180,1.0,6.0,81,0.00,,---,0.00,VWS V14.01,2013-04-15 10:15:00,
2013-04-15 03:18:00,57.3,52.0,29.82,South,175,0.0,5.0,81,0.00,,,0.00,weatherlink.com 1.10,2013-04-15 10:18:00,
2013-04-15 03:30:00,57.2,51.4,29.82,South,180,1.0,5.0,81,0.00,,---,0.00,VWS V14.01,2013-04-15 10:30:00,
2013-04-15 03:33:00,57.2,52.0,29.82,SSE,154,0.0,4.0,82,0.00,,,0.00,weatherlink.com 1.10,2013-04-15 10:33:00,
2013-04-15 03:45:00,57.1,51.3,29.83,SSE,158,1.0,4.0,81,0.00,,---,0.00,VWS V14.01,2013-04-15 10:45:00,
2013-04-15 03:48:00,57.1,51.0,29.83,South,180,3.0,5.0,81,0.00,,,0.00,weatherlink.com 1.10,2013-04-15 10:48:00,
2013-04-15 04:00:00,57.2,51.4,29.83,South,180,1.0,5.0,81,0.00,,---,0.00,VWS V14.01,2013-04-15 11:00:00,
2013-04-15 04:03:00,57.2,51.0,29.83,SSE,163,1.0,4.0,81,0.00,,,0.00,weatherlink.com 1.10,2013-04-15 11:03:00,
2013-04-15 04:15:00,57.2,51.4,29.83,South,180,1.0,6.0,81,0.00,,---,0.00,VWS V14.01,2013-04-15 11:15:00,
2013-04-15 04:30:00,57.3,51.5,29.83,ESE,112,1.0,5.0,81,0.00,,---,0.00,VWS V14.01,2013-04-15 11:30:00,
2013-04-15 04:33:00,57.3,52.0,29.82,SSE,159,1.0,4.0,81,0.00,,,0.00,weatherlink.com 1.10,2013-04-15 11:33:00,
2013-04-15 04:45:00,57.2,51.4,29.82,SSE,158,1.0,5.0,81,0.00,,---,0.00,VWS V14.01,2013-04-15 11:45:00,
2013-04-15 04:48:00,57.2,51.0,29.82,SSE,162,0.0,3.0,81,0.00,,,0.00,weatherlink.com 1.10,2013-04-15 11:48:00,
2013-04-15 05:00:00,57.1,51.3,29.82,SSE,158,0.0,3.0,81,0.00,,---,0.00,VWS V14.01,2013-04-15 12:00:00,
2013-04-15 05:03:00,57.1,52.0,29.82,SSE,163,0.0,4.0,82,0.00,,,0.00,weatherlink.com 1.10,2013-04-15 12:03:00,
2013-04-15 05:15:00,57.1,51.7,29.83,South,180,1.0,4.0,82,0.00,,---,0.00,VWS V14.01,2013-04-15 12:15:00,
2013-04-15 05:18:00,57.0,52.0,29.82,SSE,150,1.0,4.0,82,0.00,,,0.00,weatherlink.com 1.10,2013-04-15 12:18:00,
2013-04-15 05:30:00,56.9,51.8,29.83,South,180,1.0,6.0,83,0.00,,---,0.00,VWS V14.01,2013-04-15 12:30:00,
2013-04-15 05:33:00,56.9,52.0,29.82,South,178,0.0,4.0,84,0.00,,,0.00,weatherlink.com 1.10,2013-04-15 12:33:00,
2013-04-15 05:45:00,57.0,52.2,29.83,South,180,1.0,5.0,84,0.00,,---,0.00,VWS V14.01,2013-04-15 12:45:00,
2013-04-15 05:48:00,57.0,52.0,29.83,ESE,121,1.0,2.0,84,0.00,,,0.00,weatherlink.com 1.10,2013-04-15 12:48:00,
2013-04-15 06:00:00,57.1,52.3,29.83,SSE,158,1.0,4.0,84,0.00,,---,0.00,VWS V14.01,2013-04-15 13:00:00,
2013-04-15 06:03:00,57.2,52.0,29.83,East,101,1.0,4.0,84,0.00,,,0.00,weatherlink.com 1.10,2013-04-15 13:03:00,
2013-04-15 06:15:00,57.3,52.5,29.83,SSE,158,1.0,3.0,84,0.00,,---,0.00,VWS V14.01,2013-04-15 13:15:00,
2013-04-15 06:18:00,57.4,53.0,29.83,ESE,105,1.0,7.0,84,0.00,,,0.00,weatherlink.com 1.10,2013-04-15 13:18:00,
2013-04-15 06:30:00,57.5,52.4,29.83,South,180,2.0,7.0,83,0.00,,---,0.00,VWS V14.01,2013-04-15 13:30:00,
2013-04-15 06:33:00,57.5,52.0,29.83,South,171,2.0,3.0,83,0.00,,,0.00,weatherlink.com 1.10,2013-04-15 13:33:00,
2013-04-15 06:45:00,57.5,52.4,29.83,South,180,1.0,5.0,83,0.00,,---,0.00,VWS V14.01,2013-04-15 13:45:00,
2013-04-15 06:48:00,57.5,52.0,29.84,ESE,115,0.0,5.0,83,0.00,,,0.00,weatherlink.com 1.10,2013-04-15 13:48:00,
2013-04-15 07:00:00,57.6,52.5,29.84,South,180,1.0,5.0,83,0.00,,---,0.00,VWS V14.01,2013-04-15 14:00:00,
2013-04-15 07:03:00,57.8,54.0,29.84,SSW,196,0.0,3.0,88,0.00,,,0.00,weatherlink.com 1.10,2013-04-15 14:03:00,
2013-04-15 07:15:00,57.7,54.8,29.84,SW,225,0.0,3.0,90,0.00,,---,0.00,VWS V14.01,2013-04-15 14:15:00,
2013-04-15 07:18:00,57.7,55.0,29.84,SW,230,0.0,1.0,90,0.00,,,0.00,weatherlink.com 1.10,2013-04-15 14:18:00,
2013-04-15 07:30:00,57.5,54.6,29.85,SW,225,0.0,4.0,90,0.00,,---,0.00,VWS V14.01,2013-04-15 14:30:00,
2013-04-15 07:33:00,57.4,55.0,29.85,SSW,207,1.0,4.0,90,0.00,,,0.00,weatherlink.com 1.10,2013-04-15 14:33:00,
2013-04-15 07:45:00,57.2,54.6,29.85,SW,225,1.0,4.0,91,0.02,,---,0.02,VWS V14.01,2013-04-15 14:45:00,
2013-04-15 07:48:00,57.2,55.0,29.85,SW,216,0.0,1.0,91,0.02,,,0.02,weatherlink.com 1.10,2013-04-15 14:48:00,
2013-04-15 08:00:00,57.2,54.9,29.85,SW,225,0.0,5.0,92,0.02,,---,0.02,VWS V14.01,2013-04-15 15:00:00,
2013-04-15 08:03:00,57.1,55.0,29.85,SSW,208,2.0,5.0,92,0.02,,,0.02,weatherlink.com 1.10,2013-04-15 15:03:00,
2013-04-15 08:15:00,57.0,54.4,29.85,SW,225,1.0,6.0,91,0.02,,---,0.02,VWS V14.01,2013-04-15 15:15:00,
2013-04-15 08:18:00,57.1,55.0,29.85,WSW,249,1.0,5.0,92,0.02,,,0.02,weatherlink.com 1.10,2013-04-15 15:18:00,
2013-04-15 08:30:00,57.2,54.6,29.86,WSW,248,2.0,7.0,91,0.02,,---,0.02,VWS V14.01,2013-04-15 15:30:00,
2013-04-15 08:45:00,57.4,55.1,29.86,WSW,248,2.0,6.0,92,0.02,,---,0.02,VWS V14.01,2013-04-15 15:45:00,
2013-04-15 08:48:00,57.6,55.0,29.86,WSW,246,5.0,6.0,92,0.00,,,0.02,weatherlink.com 1.10,2013-04-15 15:48:00,
2013-04-15 09:00:00,57.6,54.7,29.86,WSW,248,2.0,7.0,90,0.00,,---,0.02,VWS V14.01,2013-04-15 16:00:00,
2013-04-15 09:03:00,57.5,54.0,29.86,WSW,246,5.0,7.0,89,0.00,,,0.02,weatherlink.com 1.10,2013-04-15 16:03:00,
2013-04-15 09:15:00,57.9,54.7,29.86,WSW,248,3.0,7.0,89,0.00,,---,0.02,VWS V14.01,2013-04-15 16:15:00,
2013-04-15 09:18:00,58.1,55.0,29.86,WSW,246,1.0,7.0,90,0.00,,,0.02,weatherlink.com 1.10,2013-04-15 16:18:00,
2013-04-15 09:30:00,58.4,55.2,29.86,WSW,248,3.0,7.0,89,0.00,,---,0.02,VWS V14.01,2013-04-15 16:30:00,
2013-04-15 09:34:00,58.4,55.0,29.86,WSW,250,4.0,7.0,88,0.00,,,0.02,weatherlink.com 1.10,2013-04-15 16:34:00,
2013-04-15 09:45:00,58.6,54.8,29.87,WSW,248,3.0,8.0,87,0.00,,---,0.02,VWS V14.01,2013-04-15 16:45:00,
2013-04-15 09:49:00,58.6,55.0,29.87,WSW,237,0.0,8.0,86,0.00,,,0.02,weatherlink.com 1.10,2013-04-15 16:49:00,
2013-04-15 10:00:00,58.7,54.8,29.87,WSW,248,3.0,9.0,87,0.00,,---,0.02,VWS V14.01,2013-04-15 17:00:00,
2013-04-15 10:04:00,58.6,55.0,29.87,SSW,202,2.0,10.0,86,0.00,,,0.02,weatherlink.com 1.10,2013-04-15 17:04:00,
2013-04-15 10:15:00,58.7,54.5,29.88,WSW,248,3.0,10.0,86,0.00,,---,0.02,VWS V14.01,2013-04-15 17:15:00,
2013-04-15 10:19:00,58.9,55.0,29.88,WSW,239,2.0,8.0,86,0.00,,,0.02,weatherlink.com 1.10,2013-04-15 17:19:00,
2013-04-15 10:30:00,59.6,55.1,29.88,WSW,248,2.0,7.0,85,0.00,,---,0.02,VWS V14.01,2013-04-15 17:30:00,
2013-04-15 10:34:00,59.8,55.0,29.88,SSW,196,2.0,10.0,84,0.00,,,0.02,weatherlink.com 1.10,2013-04-15 17:34:00,
2013-04-15 10:45:00,60.3,55.1,29.88,WSW,248,4.0,10.0,83,0.00,,---,0.02,VWS V14.01,2013-04-15 17:45:00,
2013-04-15 10:49:00,60.9,55.0,29.88,South,177,3.0,10.0,81,0.00,,,0.02,weatherlink.com 1.10,2013-04-15 17:49:00,
2013-04-15 11:00:00,61.8,55.2,29.89,SSW,202,4.0,10.0,79,0.00,,---,0.02,VWS V14.01,2013-04-15 18:00:00,
2013-04-15 11:04:00,61.8,55.0,29.89,WSW,240,2.0,10.0,79,0.00,,,0.02,weatherlink.com 1.10,2013-04-15 18:04:00,
2013-04-15 11:15:00,61.5,54.9,29.89,SSW,202,4.0,10.0,79,0.00,,---,0.02,VWS V14.01,2013-04-15 18:15:00,
2013-04-15 11:19:00,61.3,55.0,29.89,SSW,211,3.0,9.0,80,0.00,,,0.02,weatherlink.com 1.10,2013-04-15 18:19:00,
2013-04-15 11:30:00,61.2,55.0,29.89,WSW,248,4.0,10.0,80,0.00,,---,0.02,VWS V14.01,2013-04-15 18:30:00,
2013-04-15 11:34:00,61.3,55.0,29.89,SSW,207,1.0,10.0,79,0.00,,,0.02,weatherlink.com 1.10,2013-04-15 18:34:00,
2013-04-15 11:45:00,61.1,54.5,29.89,WSW,248,3.0,11.0,79,0.00,,---,0.02,VWS V14.01,2013-04-15 18:45:00,
2013-04-15 11:49:00,61.2,55.0,29.89,WSW,244,2.0,8.0,79,0.00,,,0.02,weatherlink.com 1.10,2013-04-15 18:49:00,
2013-04-15 12:00:00,61.8,54.5,29.89,SSW,202,3.0,10.0,77,0.00,,---,0.02,VWS V14.01,2013-04-15 19:00:00,
2013-04-15 12:04:00,62.0,55.0,29.89,SSW,203,2.0,9.0,77,0.00,,,0.02,weatherlink.com 1.10,2013-04-15 19:04:00,
2013-04-15 12:15:00,62.7,55.4,29.89,SSW,202,4.0,10.0,77,0.00,,---,0.02,VWS V14.01,2013-04-15 19:15:00,
2013-04-15 12:19:00,63.2,55.0,29.89,SSW,201,4.0,12.0,75,0.00,,,0.02,weatherlink.com 1.10,2013-04-15 19:19:00,
2013-04-15 12:30:00,64.3,56.6,29.89,SSW,202,5.0,12.0,76,0.00,,---,0.02,VWS V14.01,2013-04-15 19:30:00,
2013-04-15 12:34:00,64.5,56.0,29.89,South,188,1.0,11.0,73,0.00,,,0.02,weatherlink.com 1.10,2013-04-15 19:34:00,
2013-04-15 12:45:00,64.5,55.7,29.89,SSW,202,4.0,11.0,73,0.00,,---,0.02,VWS V14.01,2013-04-15 19:45:00,
2013-04-15 13:04:00,64.7,56.0,29.89,South,178,6.0,12.0,73,0.00,,,0.02,weatherlink.com 1.10,2013-04-15 20:04:00,
2013-04-15 13:15:00,64.4,55.9,29.89,SSW,202,5.0,12.0,74,0.00,,---,0.02,VWS V14.01,2013-04-15 20:15:00,
2013-04-15 13:19:00,64.4,56.0,29.89,SSW,198,0.0,9.0,74,0.00,,,0.02,weatherlink.com 1.10,2013-04-15 20:19:00,
2013-04-15 13:30:00,64.4,55.2,29.89,SSW,202,4.0,11.0,72,0.00,,---,0.02,VWS V14.01,2013-04-15 20:30:00,
2013-04-15 13:34:00,64.4,56.0,29.88,SSW,207,3.0,11.0,73,0.00,,,0.02,weatherlink.com 1.10,2013-04-15 20:34:00,
2013-04-15 13:45:00,64.7,55.9,29.88,SSW,202,4.0,11.0,73,0.00,,---,0.02,VWS V14.01,2013-04-15 20:45:00,
2013-04-15 13:49:00,65.2,56.0,29.88,WSW,237,2.0,9.0,73,0.00,,,0.02,weatherlink.com 1.10,2013-04-15 20:49:00,
2013-04-15 14:00:00,65.5,55.9,29.88,SSW,202,4.0,9.0,71,0.00,,---,0.02,VWS V14.01,2013-04-15 21:00:00,
2013-04-15 14:04:00,66.0,56.0,29.88,SW,232,4.0,7.0,71,0.00,,,0.02,weatherlink.com 1.10,2013-04-15 21:04:00,
2013-04-15 14:19:00,65.8,55.0,29.87,SW,220,3.0,9.0,69,0.00,,,0.02,weatherlink.com 1.10,2013-04-15 21:19:00,
2013-04-15 14:30:00,65.8,55.8,29.87,SSW,202,4.0,12.0,70,0.00,,---,0.02,VWS V14.01,2013-04-15 21:30:00,
2013-04-15 14:34:00,66.1,56.0,29.87,South,182,8.0,11.0,69,0.00,,,0.02,weatherlink.com 1.10,2013-04-15 21:34:00,
2013-04-15 14:45:00,65.9,54.7,29.86,South,180,5.0,11.0,67,0.00,,---,0.02,VWS V14.01,2013-04-15 21:45:00,
2013-04-15 14:49:00,65.3,54.0,29.86,SSW,193,3.0,11.0,68,0.00,,,0.02,weatherlink.com 1.10,2013-04-15 21:49:00,
2013-04-15 15:00:00,65.2,54.8,29.86,SSE,158,3.0,12.0,69,0.00,,---,0.02,VWS V14.01,2013-04-15 22:00:00,
2013-04-15 15:04:00,65.0,55.0,29.85,SSW,196,4.0,12.0,70,0.00,,,0.02,weatherlink.com 1.10,2013-04-15 22:04:00,
2013-04-15 15:15:00,64.5,54.5,29.85,South,180,5.0,12.0,70,0.00,,---,0.02,VWS V14.01,2013-04-15 22:15:00,
2013-04-15 15:19:00,64.3,54.0,29.85,SE,142,10.0,12.0,70,0.00,,,0.02,weatherlink.com 1.10,2013-04-15 22:19:00,
2013-04-15 15:30:00,64.5,53.7,29.84,South,180,6.0,14.0,68,0.00,,---,0.02,VWS V14.01,2013-04-15 22:30:00,
2013-04-15 15:34:00,64.7,54.0,29.84,ESE,119,2.0,13.0,69,0.00,,,0.02,weatherlink.com 1.10,2013-04-15 22:34:00,
2013-04-15 15:45:00,65.6,54.0,29.84,South,180,6.0,15.0,66,0.00,,---,0.02,VWS V14.01,2013-04-15 22:45:00,
2013-04-15 15:49:00,65.9,55.0,29.84,SE,133,3.0,15.0,67,0.00,,,0.02,weatherlink.com 1.10,2013-04-15 22:49:00,
2013-04-15 16:00:00,66.0,54.7,29.83,South,180,5.0,11.0,67,0.00,,---,0.02,VWS V14.01,2013-04-15 23:00:00,
2013-04-15 16:04:00,65.9,55.0,29.83,South,186,9.0,13.0,67,0.00,,,0.02,weatherlink.com 1.10,2013-04-15 23:04:00,
2013-04-15 16:15:00,65.3,55.3,29.83,South,180,6.0,13.0,70,0.00,,---,0.02,VWS V14.01,2013-04-15 23:15:00,
2013-04-15 16:19:00,65.3,55.0,29.83,SSW,193,7.0,13.0,69,0.00,,,0.02,weatherlink.com 1.10,2013-04-15 23:19:00,
2013-04-15 16:30:00,64.7,54.7,29.83,SSW,202,4.0,13.0,70,0.00,,---,0.02,VWS V14.01,2013-04-15 23:30:00,
2013-04-15 16:34:00,65.0,55.0,29.83,SSW,206,2.0,9.0,70,0.00,,,0.02,weatherlink.com 1.10,2013-04-15 23:34:00,
2013-04-15 16:45:00,64.6,55.0,29.83,SSW,202,4.0,9.0,71,0.00,,---,0.02,VWS V14.01,2013-04-15 23:45:00,
2013-04-15 16:49:00,64.9,54.0,29.83,SW,214,2.0,11.0,69,0.00,,,0.02,weatherlink.com 1.10,2013-04-15 23:49:00,
2013-04-15 17:00:00,64.4,54.4,29.83,SSW,202,4.0,11.0,70,0.00,,---,0.02,VWS V14.01,2013-04-16 00:00:00,
2013-04-15 17:04:00,64.3,55.0,29.83,SSW,193,2.0,8.0,71,0.00,,,0.02,weatherlink.com 1.10,2013-04-16 00:04:00,
2013-04-15 17:19:00,64.3,54.0,29.83,SSW,201,4.0,8.0,70,0.00,,,0.02,weatherlink.com 1.10,2013-04-16 00:19:00,
2013-04-15 17:27:00,64.4,54.4,29.83,SSW,202,4.0,11.0,70,0.00,,---,0.02,VWS V14.01,2013-04-16 00:27:00,
2013-04-15 17:34:00,63.0,53.0,29.83,SW,223,4.0,10.0,71,0.00,,,0.02,weatherlink.com 1.10,2013-04-16 00:34:00,
2013-04-15 17:45:00,61.9,53.2,29.83,SSW,202,4.0,10.0,73,0.00,,---,0.02,VWS V14.01,2013-04-16 00:45:00,
2013-04-15 17:49:00,61.8,53.0,29.83,WSW,246,5.0,8.0,73,0.00,,,0.02,weatherlink.com 1.10,2013-04-16 00:49:00,
2013-04-15 18:00:00,61.3,52.6,29.83,SSW,202,3.0,9.0,73,0.00,,---,0.02,VWS V14.01,2013-04-16 01:00:00,
2013-04-15 18:04:00,60.8,52.0,29.83,SSW,197,3.0,9.0,74,0.00,,,0.02,weatherlink.com 1.10,2013-04-16 01:04:00,
2013-04-15 18:15:00,60.5,53.3,29.83,SSW,202,2.0,6.0,77,0.00,,---,0.02,VWS V14.01,2013-04-16 01:15:00,
2013-04-15 18:19:00,60.2,53.0,29.83,WSW,244,1.0,7.0,78,0.00,,,0.02,weatherlink.com 1.10,2013-04-16 01:19:00,
2013-04-15 18:30:00,59.8,52.9,29.84,SSW,202,2.0,7.0,78,0.00,,---,0.02,VWS V14.01,2013-04-16 01:30:00,
2013-04-15 18:34:00,59.6,53.0,29.84,WSW,238,1.0,7.0,78,0.00,,,0.02,weatherlink.com 1.10,2013-04-16 01:34:00,
2013-04-15 18:45:00,59.4,52.5,29.84,SSW,202,2.0,7.0,78,0.00,,---,0.02,VWS V14.01,2013-04-16 01:45:00,
2013-04-15 18:49:00,59.3,52.0,29.84,WSW,240,2.0,7.0,78,0.00,,,0.02,weatherlink.com 1.10,2013-04-16 01:49:00,
2013-04-15 19:00:00,59.0,52.2,29.84,SSW,202,2.0,7.0,78,0.00,,---,0.02,VWS V14.01,2013-04-16 02:00:00,
2013-04-15 19:04:00,58.9,53.0,29.84,WSW,240,4.0,9.0,80,0.00,,,0.02,weatherlink.com 1.10,2013-04-16 02:04:00,
2013-04-15 19:15:00,58.6,52.8,29.84,SW,225,2.0,9.0,81,0.00,,---,0.02,VWS V14.01,2013-04-16 02:15:00,
2013-04-15 19:19:00,58.5,53.0,29.84,SW,219,2.0,6.0,81,0.00,,,0.02,weatherlink.com 1.10,2013-04-16 02:19:00,
2013-04-15 19:30:00,58.2,52.4,29.84,WSW,248,2.0,11.0,81,0.00,,---,0.02,VWS V14.01,2013-04-16 02:30:00,
2013-04-15 19:34:00,58.1,52.0,29.84,SW,221,2.0,7.0,81,0.00,,,0.02,weatherlink.com 1.10,2013-04-16 02:34:00,
2013-04-15 19:45:00,58.0,52.2,29.84,WSW,248,2.0,6.0,81,0.00,,---,0.02,VWS V14.01,2013-04-16 02:45:00,
2013-04-15 19:49:00,58.0,52.0,29.84,SW,233,1.0,7.0,81,0.00,,,0.02,weatherlink.com 1.10,2013-04-16 02:49:00,
2013-04-15 20:00:00,57.9,52.1,29.84,WSW,248,2.0,7.0,81,0.00,,---,0.02,VWS V14.01,2013-04-16 03:00:00,
2013-04-15 20:04:00,57.8,52.0,29.85,SW,234,2.0,7.0,81,0.00,,,0.02,weatherlink.com 1.10,2013-04-16 03:04:00,
2013-04-15 20:15:00,57.8,52.0,29.85,WSW,248,2.0,7.0,81,0.00,,---,0.02,VWS V14.01,2013-04-16 03:15:00,
2013-04-15 20:19:00,57.7,51.0,29.85,SSW,204,5.0,10.0,79,0.00,,,0.02,weatherlink.com 1.10,2013-04-16 03:19:00,
2013-04-15 20:30:00,57.7,51.6,29.85,WSW,248,3.0,10.0,80,0.00,,---,0.02,VWS V14.01,2013-04-16 03:30:00,
2013-04-15 20:34:00,57.6,52.0,29.85,SW,219,1.0,7.0,80,0.00,,,0.02,weatherlink.com 1.10,2013-04-16 03:34:00,
2013-04-15 20:45:00,57.6,51.5,29.85,WSW,248,2.0,7.0,80,0.00,,---,0.02,VWS V14.01,2013-04-16 03:45:00,
2013-04-15 20:49:00,57.6,52.0,29.85,SSW,200,0.0,6.0,81,0.00,,,0.02,weatherlink.com 1.10,2013-04-16 03:49:00,
2013-04-15 21:00:00,57.5,51.7,29.86,WSW,248,2.0,8.0,81,0.00,,---,0.02,VWS V14.01,2013-04-16 04:00:00,
2013-04-15 21:04:00,57.5,52.0,29.86,South,186,2.0,6.0,81,0.00,,,0.02,weatherlink.com 1.10,2013-04-16 04:04:00,
2013-04-15 21:15:00,57.4,51.6,29.86,WSW,248,2.0,7.0,81,0.00,,---,0.02,VWS V14.01,2013-04-16 04:15:00,
2013-04-15 21:19:00,57.4,52.0,29.87,WSW,239,0.0,7.0,81,0.00,,,0.02,weatherlink.com 1.10,2013-04-16 04:19:00,
2013-04-15 21:30:00,57.3,51.5,29.87,WSW,248,2.0,5.0,81,0.00,,---,0.02,VWS V14.01,2013-04-16 04:30:00,
2013-04-15 21:34:00,57.3,52.0,29.87,SSW,210,1.0,6.0,81,0.00,,,0.02,weatherlink.com 1.10,2013-04-16 04:34:00,
2013-04-15 21:45:00,57.2,51.8,29.87,WSW,248,2.0,6.0,82,0.00,,---,0.02,VWS V14.01,2013-04-16 04:45:00,
2013-04-15 21:49:00,57.1,52.0,29.87,WSW,243,1.0,6.0,83,0.00,,,0.02,weatherlink.com 1.10,2013-04-16 04:49:00,
2013-04-15 22:00:00,56.9,51.8,29.87,WSW,248,3.0,11.0,83,0.00,,---,0.02,VWS V14.01,2013-04-16 05:00:00,
2013-04-15 22:04:00,56.7,52.0,29.87,WSW,241,4.0,9.0,83,0.00,,,0.02,weatherlink.com 1.10,2013-04-16 05:04:00,
2013-04-15 22:15:00,56.5,51.4,29.87,WSW,248,3.0,9.0,83,0.00,,---,0.02,VWS V14.01,2013-04-16 05:15:00,
2013-04-15 22:19:00,56.4,51.0,29.87,SW,230,2.0,6.0,83,0.00,,,0.02,weatherlink.com 1.10,2013-04-16 05:19:00,
2013-04-15 22:30:00,56.2,51.4,29.87,WSW,248,1.0,8.0,84,0.00,,---,0.02,VWS V14.01,2013-04-16 05:30:00,
2013-04-15 22:34:00,56.2,52.0,29.88,WSW,240,0.0,4.0,84,0.00,,,0.02,weatherlink.com 1.10,2013-04-16 05:34:00,
2013-04-15 22:45:00,56.0,50.9,29.88,WSW,248,1.0,4.0,83,0.00,,---,0.02,VWS V14.01,2013-04-16 05:45:00,
2013-04-15 22:49:00,56.0,51.0,29.87,SW,227,0.0,3.0,83,0.00,,,0.02,weatherlink.com 1.10,2013-04-16 05:49:00,
2013-04-15 23:00:00,55.9,50.8,29.87,SW,225,1.0,3.0,83,0.00,,---,0.02,VWS V14.01,2013-04-16 06:00:00,
2013-04-15 23:05:00,55.8,51.0,29.87,South,179,2.0,4.0,83,0.00,,,0.02,weatherlink.com 1.10,2013-04-16 06:05:00,
2013-04-15 23:15:00,55.8,50.7,29.87,South,180,2.0,5.0,83,0.00,,---,0.02,VWS V14.01,2013-04-16 06:15:00,
2013-04-15 23:20:00,55.8,51.0,29.88,South,184,2.0,5.0,83,0.00,,,0.02,weatherlink.com 1.10,2013-04-16 06:20:00,
2013-04-15 23:30:00,55.9,50.8,29.87,South,180,2.0,6.0,83,0.00,,---,0.02,VWS V14.01,2013-04-16 06:30:00,
2013-04-15 23:35:00,56.0,51.0,29.87,SSE,159,4.0,7.0,83,0.00,,,0.02,weatherlink.com 1.10,2013-04-16 06:35:00,
2013-04-15 23:45:00,56.0,50.9,29.87,SSW,202,2.0,7.0,83,0.00,,---,0.02,VWS V14.01,2013-04-16 06:45:00,
2013-04-15 23:50:00,55.9,51.0,29.87,SSW,200,0.0,5.0,83,0.00,,,0.02,weatherlink.com 1.10,2013-04-16 06:50:00,